sensor_id;sensor_type;location;lat;lon;timestamp;P1;durP1;ratioP1;P2;durP2;ratioP2
68229;SDS011;55048;52.220;5.160;2023-02-03T00:00:15;11.88;;;1.10;;
68229;SDS011;55048;52.220;5.160;2023-02-03T00:02:41;8.48;;;0.80;;
68229;SDS011;55048;52.220;5.160;2023-02-03T00:05:06;7.43;;;0.95;;
68229;SDS011;55048;52.220;5.160;2023-02-03T00:07:33;12.23;;;1.02;;
68229;SDS011;55048;52.220;5.160;2023-02-03T00:10:00;7.68;;;0.90;;
68229;SDS011;55048;52.220;5.160;2023-02-03T00:12:26;8.18;;;1.00;;
68229;SDS011;55048;52.220;5.160;2023-02-03T00:14:52;5.65;;;0.88;;
68229;SDS011;55048;52.220;5.160;2023-02-03T00:17:17;7.45;;;0.77;;
68229;SDS011;55048;52.220;5.160;2023-02-03T00:19:42;7.50;;;0.57;;
68229;SDS011;55048;52.220;5.160;2023-02-03T00:22:08;5.28;;;0.80;;
68229;SDS011;55048;52.220;5.160;2023-02-03T00:24:33;6.20;;;0.75;;
68229;SDS011;55048;52.220;5.160;2023-02-03T00:26:59;6.15;;;0.90;;
68229;SDS011;55048;52.220;5.160;2023-02-03T00:29:24;15.07;;;1.10;;
68229;SDS011;55048;52.220;5.160;2023-02-03T00:31:51;8.77;;;1.05;;
68229;SDS011;55048;52.220;5.160;2023-02-03T00:34:17;5.80;;;0.70;;
68229;SDS011;55048;52.220;5.160;2023-02-03T00:36:43;17.33;;;0.80;;
68229;SDS011;55048;52.220;5.160;2023-02-03T00:39:10;5.50;;;0.70;;
68229;SDS011;55048;52.220;5.160;2023-02-03T00:41:36;5.28;;;0.65;;
68229;SDS011;55048;52.220;5.160;2023-02-03T00:44:01;10.82;;;1.00;;
68229;SDS011;55048;52.220;5.160;2023-02-03T00:46:27;10.77;;;0.90;;
68229;SDS011;55048;52.220;5.160;2023-02-03T00:48:52;4.60;;;0.80;;
68229;SDS011;55048;52.220;5.160;2023-02-03T00:51:18;8.95;;;0.93;;
68229;SDS011;55048;52.220;5.160;2023-02-03T00:53:43;5.63;;;0.82;;
68229;SDS011;55048;52.220;5.160;2023-02-03T00:56:09;7.95;;;1.15;;
68229;SDS011;55048;52.220;5.160;2023-02-03T00:58:39;6.03;;;0.70;;
68229;SDS011;55048;52.220;5.160;2023-02-03T01:01:05;6.72;;;0.90;;
68229;SDS011;55048;52.220;5.160;2023-02-03T01:03:31;7.72;;;0.82;;
68229;SDS011;55048;52.220;5.160;2023-02-03T01:06:06;7.65;;;0.70;;
68229;SDS011;55048;52.220;5.160;2023-02-03T01:08:41;4.97;;;0.82;;
68229;SDS011;55048;52.220;5.160;2023-02-03T01:11:08;2.42;;;0.70;;
68229;SDS011;55048;52.220;5.160;2023-02-03T01:13:35;5.93;;;0.70;;
68229;SDS011;55048;52.220;5.160;2023-02-03T01:16:00;7.70;;;1.00;;
68229;SDS011;55048;52.220;5.160;2023-02-03T01:18:26;9.52;;;0.98;;
68229;SDS011;55048;52.220;5.160;2023-02-03T01:20:52;6.78;;;0.88;;
68229;SDS011;55048;52.220;5.160;2023-02-03T01:23:17;4.07;;;0.77;;
68229;SDS011;55048;52.220;5.160;2023-02-03T01:25:42;13.50;;;1.27;;
68229;SDS011;55048;52.220;5.160;2023-02-03T01:28:08;8.57;;;0.90;;
68229;SDS011;55048;52.220;5.160;2023-02-03T01:30:34;10.13;;;0.90;;
68229;SDS011;55048;52.220;5.160;2023-02-03T01:32:59;9.32;;;0.73;;
68229;SDS011;55048;52.220;5.160;2023-02-03T01:35:24;4.38;;;0.70;;
68229;SDS011;55048;52.220;5.160;2023-02-03T01:37:50;5.85;;;0.50;;
68229;SDS011;55048;52.220;5.160;2023-02-03T01:40:16;6.85;;;1.00;;
68229;SDS011;55048;52.220;5.160;2023-02-03T01:42:42;6.72;;;1.10;;
68229;SDS011;55048;52.220;5.160;2023-02-03T01:45:08;10.60;;;0.70;;
68229;SDS011;55048;52.220;5.160;2023-02-03T01:47:47;3.45;;;0.60;;
68229;SDS011;55048;52.220;5.160;2023-02-03T01:50:17;6.38;;;0.80;;
68229;SDS011;55048;52.220;5.160;2023-02-03T01:52:51;4.13;;;0.63;;
68229;SDS011;55048;52.220;5.160;2023-02-03T01:55:22;5.78;;;0.70;;
68229;SDS011;55048;52.220;5.160;2023-02-03T01:58:02;7.70;;;0.70;;
68229;SDS011;55048;52.220;5.160;2023-02-03T02:00:45;11.85;;;0.80;;
68229;SDS011;55048;52.220;5.160;2023-02-03T02:03:12;2.80;;;0.80;;
68229;SDS011;55048;52.220;5.160;2023-02-03T02:05:45;3.70;;;0.60;;
68229;SDS011;55048;52.220;5.160;2023-02-03T02:08:15;4.40;;;0.50;;
68229;SDS011;55048;52.220;5.160;2023-02-03T02:10:42;5.43;;;0.55;;
68229;SDS011;55048;52.220;5.160;2023-02-03T02:13:08;2.47;;;0.50;;
68229;SDS011;55048;52.220;5.160;2023-02-03T02:15:40;7.72;;;0.63;;
68229;SDS011;55048;52.220;5.160;2023-02-03T02:21:12;5.90;;;0.75;;
68229;SDS011;55048;52.220;5.160;2023-02-03T02:34:55;6.45;;;0.47;;
68229;SDS011;55048;52.220;5.160;2023-02-03T02:39:57;2.20;;;0.57;;
68229;SDS011;55048;52.220;5.160;2023-02-03T02:45:22;3.80;;;0.52;;
68229;SDS011;55048;52.220;5.160;2023-02-03T02:47:53;5.00;;;0.70;;
68229;SDS011;55048;52.220;5.160;2023-02-03T02:50:25;7.15;;;0.77;;
68229;SDS011;55048;52.220;5.160;2023-02-03T02:52:56;3.75;;;0.43;;
68229;SDS011;55048;52.220;5.160;2023-02-03T02:55:23;9.18;;;1.27;;
68229;SDS011;55048;52.220;5.160;2023-02-03T02:58:09;4.43;;;0.50;;
68229;SDS011;55048;52.220;5.160;2023-02-03T03:00:39;3.53;;;0.52;;
68229;SDS011;55048;52.220;5.160;2023-02-03T03:05:42;6.20;;;0.63;;
68229;SDS011;55048;52.220;5.160;2023-02-03T03:08:15;3.47;;;0.50;;
68229;SDS011;55048;52.220;5.160;2023-02-03T03:10:46;1.73;;;0.40;;
68229;SDS011;55048;52.220;5.160;2023-02-03T03:13:14;5.68;;;0.63;;
68229;SDS011;55048;52.220;5.160;2023-02-03T03:15:47;4.50;;;0.60;;
68229;SDS011;55048;52.220;5.160;2023-02-03T03:18:24;7.03;;;0.70;;
68229;SDS011;55048;52.220;5.160;2023-02-03T03:20:54;6.47;;;1.15;;
68229;SDS011;55048;52.220;5.160;2023-02-03T03:23:25;5.38;;;0.50;;
68229;SDS011;55048;52.220;5.160;2023-02-03T03:25:58;4.45;;;0.50;;
68229;SDS011;55048;52.220;5.160;2023-02-03T03:28:28;4.30;;;0.57;;
68229;SDS011;55048;52.220;5.160;2023-02-03T03:30:59;5.45;;;0.52;;
68229;SDS011;55048;52.220;5.160;2023-02-03T03:33:25;11.48;;;1.10;;
68229;SDS011;55048;52.220;5.160;2023-02-03T03:35:53;4.45;;;0.60;;
68229;SDS011;55048;52.220;5.160;2023-02-03T03:38:32;4.85;;;0.50;;
68229;SDS011;55048;52.220;5.160;2023-02-03T03:41:26;2.58;;;0.47;;
68229;SDS011;55048;52.220;5.160;2023-02-03T03:44:00;9.10;;;0.80;;
68229;SDS011;55048;52.220;5.160;2023-02-03T03:46:31;4.72;;;0.77;;
68229;SDS011;55048;52.220;5.160;2023-02-03T03:49:04;7.38;;;0.63;;
68229;SDS011;55048;52.220;5.160;2023-02-03T03:51:43;8.48;;;0.93;;
68229;SDS011;55048;52.220;5.160;2023-02-03T03:54:14;4.47;;;0.55;;
68229;SDS011;55048;52.220;5.160;2023-02-03T03:56:54;3.33;;;0.70;;
68229;SDS011;55048;52.220;5.160;2023-02-03T03:59:24;4.55;;;0.50;;
68229;SDS011;55048;52.220;5.160;2023-02-03T04:01:53;11.60;;;0.73;;
68229;SDS011;55048;52.220;5.160;2023-02-03T04:04:19;5.63;;;0.50;;
68229;SDS011;55048;52.220;5.160;2023-02-03T04:06:47;3.50;;;0.40;;
68229;SDS011;55048;52.220;5.160;2023-02-03T04:09:12;3.25;;;0.50;;
68229;SDS011;55048;52.220;5.160;2023-02-03T04:11:38;3.47;;;0.60;;
68229;SDS011;55048;52.220;5.160;2023-02-03T04:14:22;4.07;;;0.40;;
68229;SDS011;55048;52.220;5.160;2023-02-03T04:16:47;8.10;;;0.60;;
68229;SDS011;55048;52.220;5.160;2023-02-03T04:19:13;7.43;;;0.55;;
68229;SDS011;55048;52.220;5.160;2023-02-03T04:21:38;5.97;;;0.85;;
68229;SDS011;55048;52.220;5.160;2023-02-03T04:24:03;8.98;;;0.57;;
68229;SDS011;55048;52.220;5.160;2023-02-03T04:26:29;4.47;;;0.40;;
68229;SDS011;55048;52.220;5.160;2023-02-03T04:28:54;7.72;;;0.80;;
68229;SDS011;55048;52.220;5.160;2023-02-03T04:31:20;4.80;;;0.63;;
68229;SDS011;55048;52.220;5.160;2023-02-03T04:33:45;2.55;;;0.40;;
68229;SDS011;55048;52.220;5.160;2023-02-03T04:36:11;8.45;;;0.68;;
68229;SDS011;55048;52.220;5.160;2023-02-03T04:38:36;3.88;;;0.80;;
68229;SDS011;55048;52.220;5.160;2023-02-03T04:41:01;3.30;;;0.40;;
68229;SDS011;55048;52.220;5.160;2023-02-03T04:43:27;6.40;;;0.50;;
68229;SDS011;55048;52.220;5.160;2023-02-03T04:45:52;8.02;;;0.85;;
68229;SDS011;55048;52.220;5.160;2023-02-03T04:48:18;4.50;;;0.50;;
68229;SDS011;55048;52.220;5.160;2023-02-03T04:50:43;3.35;;;0.70;;
68229;SDS011;55048;52.220;5.160;2023-02-03T04:53:09;3.05;;;0.43;;
68229;SDS011;55048;52.220;5.160;2023-02-03T04:55:34;7.22;;;0.60;;
68229;SDS011;55048;52.220;5.160;2023-02-03T04:58:00;10.23;;;0.90;;
68229;SDS011;55048;52.220;5.160;2023-02-03T05:00:27;4.63;;;0.68;;
68229;SDS011;55048;52.220;5.160;2023-02-03T05:02:52;8.90;;;0.90;;
68229;SDS011;55048;52.220;5.160;2023-02-03T05:05:19;9.38;;;0.50;;
68229;SDS011;55048;52.220;5.160;2023-02-03T05:07:45;4.40;;;0.50;;
68229;SDS011;55048;52.220;5.160;2023-02-03T05:10:10;4.82;;;0.52;;
68229;SDS011;55048;52.220;5.160;2023-02-03T05:12:36;11.82;;;0.95;;
68229;SDS011;55048;52.220;5.160;2023-02-03T05:15:01;4.82;;;0.77;;
68229;SDS011;55048;52.220;5.160;2023-02-03T05:17:27;7.35;;;0.90;;
68229;SDS011;55048;52.220;5.160;2023-02-03T05:19:52;7.18;;;0.50;;
68229;SDS011;55048;52.220;5.160;2023-02-03T05:22:17;9.95;;;0.60;;
68229;SDS011;55048;52.220;5.160;2023-02-03T05:24:43;11.88;;;1.00;;
68229;SDS011;55048;52.220;5.160;2023-02-03T05:27:08;16.25;;;1.00;;
68229;SDS011;55048;52.220;5.160;2023-02-03T05:29:34;10.10;;;0.80;;
68229;SDS011;55048;52.220;5.160;2023-02-03T05:31:59;6.20;;;0.52;;
68229;SDS011;55048;52.220;5.160;2023-02-03T05:34:25;4.93;;;0.50;;
68229;SDS011;55048;52.220;5.160;2023-02-03T05:36:51;11.32;;;0.90;;
68229;SDS011;55048;52.220;5.160;2023-02-03T05:39:16;4.60;;;1.05;;
68229;SDS011;55048;52.220;5.160;2023-02-03T05:41:41;5.85;;;0.70;;
68229;SDS011;55048;52.220;5.160;2023-02-03T05:44:16;8.10;;;0.70;;
68229;SDS011;55048;52.220;5.160;2023-02-03T05:46:42;9.38;;;0.95;;
68229;SDS011;55048;52.220;5.160;2023-02-03T05:49:07;8.98;;;0.95;;
68229;SDS011;55048;52.220;5.160;2023-02-03T05:51:33;6.38;;;0.55;;
68229;SDS011;55048;52.220;5.160;2023-02-03T05:53:58;9.63;;;0.90;;
68229;SDS011;55048;52.220;5.160;2023-02-03T05:56:23;6.85;;;0.88;;
68229;SDS011;55048;52.220;5.160;2023-02-03T05:58:49;5.40;;;0.60;;
68229;SDS011;55048;52.220;5.160;2023-02-03T06:01:17;8.73;;;0.85;;
68229;SDS011;55048;52.220;5.160;2023-02-03T06:03:43;6.80;;;0.70;;
68229;SDS011;55048;52.220;5.160;2023-02-03T06:06:09;19.90;;;1.00;;
68229;SDS011;55048;52.220;5.160;2023-02-03T06:08:35;9.50;;;0.98;;
68229;SDS011;55048;52.220;5.160;2023-02-03T06:11:00;11.23;;;0.82;;
68229;SDS011;55048;52.220;5.160;2023-02-03T06:13:26;7.63;;;0.75;;
68229;SDS011;55048;52.220;5.160;2023-02-03T06:15:52;8.30;;;0.88;;
68229;SDS011;55048;52.220;5.160;2023-02-03T06:18:17;15.52;;;0.90;;
68229;SDS011;55048;52.220;5.160;2023-02-03T06:20:43;5.60;;;0.50;;
68229;SDS011;55048;52.220;5.160;2023-02-03T06:23:08;10.32;;;0.88;;
68229;SDS011;55048;52.220;5.160;2023-02-03T06:25:34;7.57;;;0.73;;
68229;SDS011;55048;52.220;5.160;2023-02-03T06:27:59;9.93;;;1.00;;
68229;SDS011;55048;52.220;5.160;2023-02-03T06:30:24;7.47;;;0.90;;
68229;SDS011;55048;52.220;5.160;2023-02-03T06:32:50;6.88;;;0.80;;
68229;SDS011;55048;52.220;5.160;2023-02-03T06:35:16;7.18;;;0.75;;
68229;SDS011;55048;52.220;5.160;2023-02-03T06:37:41;8.63;;;0.50;;
68229;SDS011;55048;52.220;5.160;2023-02-03T06:40:07;4.60;;;0.50;;
68229;SDS011;55048;52.220;5.160;2023-02-03T06:42:34;7.97;;;0.70;;
68229;SDS011;55048;52.220;5.160;2023-02-03T06:45:00;7.32;;;1.25;;
68229;SDS011;55048;52.220;5.160;2023-02-03T06:47:26;7.85;;;0.90;;
68229;SDS011;55048;52.220;5.160;2023-02-03T06:49:51;6.80;;;0.63;;
68229;SDS011;55048;52.220;5.160;2023-02-03T06:52:17;7.30;;;0.73;;
68229;SDS011;55048;52.220;5.160;2023-02-03T06:54:42;18.90;;;1.83;;
68229;SDS011;55048;52.220;5.160;2023-02-03T06:57:08;3.63;;;0.73;;
68229;SDS011;55048;52.220;5.160;2023-02-03T06:59:33;13.80;;;0.90;;
68229;SDS011;55048;52.220;5.160;2023-02-03T07:01:59;5.93;;;1.17;;
68229;SDS011;55048;52.220;5.160;2023-02-03T07:04:24;11.13;;;0.80;;
68229;SDS011;55048;52.220;5.160;2023-02-03T07:06:52;9.18;;;0.90;;
68229;SDS011;55048;52.220;5.160;2023-02-03T07:09:18;6.28;;;0.60;;
68229;SDS011;55048;52.220;5.160;2023-02-03T07:11:43;7.13;;;0.75;;
68229;SDS011;55048;52.220;5.160;2023-02-03T07:14:08;8.75;;;0.95;;
68229;SDS011;55048;52.220;5.160;2023-02-03T07:16:34;9.00;;;0.68;;
68229;SDS011;55048;52.220;5.160;2023-02-03T07:19:01;12.45;;;0.82;;
68229;SDS011;55048;52.220;5.160;2023-02-03T07:21:27;9.77;;;1.02;;
68229;SDS011;55048;52.220;5.160;2023-02-03T07:23:53;10.10;;;1.27;;
68229;SDS011;55048;52.220;5.160;2023-02-03T07:26:18;12.57;;;1.38;;
68229;SDS011;55048;52.220;5.160;2023-02-03T07:28:47;3.83;;;0.77;;
68229;SDS011;55048;52.220;5.160;2023-02-03T07:31:12;4.43;;;0.60;;
68229;SDS011;55048;52.220;5.160;2023-02-03T07:33:38;7.57;;;0.70;;
68229;SDS011;55048;52.220;5.160;2023-02-03T07:36:04;9.93;;;1.33;;
68229;SDS011;55048;52.220;5.160;2023-02-03T07:38:30;6.72;;;0.65;;
68229;SDS011;55048;52.220;5.160;2023-02-03T07:40:56;2.83;;;0.30;;
68229;SDS011;55048;52.220;5.160;2023-02-03T07:43:21;18.65;;;1.80;;
68229;SDS011;55048;52.220;5.160;2023-02-03T07:45:47;8.48;;;0.80;;
68229;SDS011;55048;52.220;5.160;2023-02-03T07:48:12;11.55;;;0.90;;
68229;SDS011;55048;52.220;5.160;2023-02-03T07:50:38;12.05;;;1.00;;
68229;SDS011;55048;52.220;5.160;2023-02-03T07:53:04;6.90;;;1.00;;
68229;SDS011;55048;52.220;5.160;2023-02-03T07:55:30;10.60;;;0.82;;
68229;SDS011;55048;52.220;5.160;2023-02-03T07:57:56;8.65;;;1.05;;
68229;SDS011;55048;52.220;5.160;2023-02-03T08:00:22;14.10;;;1.00;;
68229;SDS011;55048;52.220;5.160;2023-02-03T08:02:48;6.15;;;0.80;;
68229;SDS011;55048;52.220;5.160;2023-02-03T08:05:13;10.48;;;1.20;;
68229;SDS011;55048;52.220;5.160;2023-02-03T08:07:40;7.38;;;0.70;;
68229;SDS011;55048;52.220;5.160;2023-02-03T08:10:06;9.75;;;1.35;;
68229;SDS011;55048;52.220;5.160;2023-02-03T08:12:32;4.07;;;0.65;;
68229;SDS011;55048;52.220;5.160;2023-02-03T08:14:57;9.93;;;1.00;;
68229;SDS011;55048;52.220;5.160;2023-02-03T08:17:22;11.55;;;0.90;;
68229;SDS011;55048;52.220;5.160;2023-02-03T08:19:48;5.03;;;0.50;;
68229;SDS011;55048;52.220;5.160;2023-02-03T08:22:13;13.68;;;1.10;;
68229;SDS011;55048;52.220;5.160;2023-02-03T08:24:42;10.23;;;0.85;;
68229;SDS011;55048;52.220;5.160;2023-02-03T08:27:13;15.13;;;1.42;;
68229;SDS011;55048;52.220;5.160;2023-02-03T08:29:41;14.30;;;1.30;;
68229;SDS011;55048;52.220;5.160;2023-02-03T08:32:11;7.43;;;0.90;;
68229;SDS011;55048;52.220;5.160;2023-02-03T08:34:43;13.88;;;1.92;;
68229;SDS011;55048;52.220;5.160;2023-02-03T08:37:10;17.55;;;1.17;;
68229;SDS011;55048;52.220;5.160;2023-02-03T08:39:36;6.22;;;1.17;;
68229;SDS011;55048;52.220;5.160;2023-02-03T08:42:03;10.70;;;0.90;;
68229;SDS011;55048;52.220;5.160;2023-02-03T08:44:32;8.80;;;0.77;;
68229;SDS011;55048;52.220;5.160;2023-02-03T08:46:58;11.73;;;0.98;;
68229;SDS011;55048;52.220;5.160;2023-02-03T08:49:25;6.38;;;0.90;;
68229;SDS011;55048;52.220;5.160;2023-02-03T08:51:52;9.65;;;0.90;;
68229;SDS011;55048;52.220;5.160;2023-02-03T08:54:19;10.45;;;1.00;;
68229;SDS011;55048;52.220;5.160;2023-02-03T08:56:44;7.05;;;0.80;;
68229;SDS011;55048;52.220;5.160;2023-02-03T08:59:10;11.55;;;1.00;;
68229;SDS011;55048;52.220;5.160;2023-02-03T09:01:37;10.65;;;0.85;;
68229;SDS011;55048;52.220;5.160;2023-02-03T09:04:05;6.60;;;1.00;;
68229;SDS011;55048;52.220;5.160;2023-02-03T09:06:33;8.05;;;0.77;;
68229;SDS011;55048;52.220;5.160;2023-02-03T09:08:59;7.53;;;0.70;;
68229;SDS011;55048;52.220;5.160;2023-02-03T09:11:25;15.02;;;1.02;;
68229;SDS011;55048;52.220;5.160;2023-02-03T09:13:51;12.20;;;0.98;;
68229;SDS011;55048;52.220;5.160;2023-02-03T09:16:17;9.70;;;0.77;;
68229;SDS011;55048;52.220;5.160;2023-02-03T09:18:44;8.65;;;1.00;;
68229;SDS011;55048;52.220;5.160;2023-02-03T09:21:11;11.07;;;1.20;;
68229;SDS011;55048;52.220;5.160;2023-02-03T09:23:37;9.73;;;1.00;;
68229;SDS011;55048;52.220;5.160;2023-02-03T09:26:04;18.83;;;1.35;;
68229;SDS011;55048;52.220;5.160;2023-02-03T09:28:32;9.50;;;0.82;;
68229;SDS011;55048;52.220;5.160;2023-02-03T09:31:02;12.73;;;1.20;;
68229;SDS011;55048;52.220;5.160;2023-02-03T09:33:29;6.22;;;1.10;;
68229;SDS011;55048;52.220;5.160;2023-02-03T09:35:55;9.95;;;1.38;;
68229;SDS011;55048;52.220;5.160;2023-02-03T09:38:21;12.60;;;0.98;;
68229;SDS011;55048;52.220;5.160;2023-02-03T09:40:52;3.17;;;0.50;;
68229;SDS011;55048;52.220;5.160;2023-02-03T09:48:37;9.75;;;0.82;;
68229;SDS011;55048;52.220;5.160;2023-02-03T09:51:15;3.90;;;0.75;;
68229;SDS011;55048;52.220;5.160;2023-02-03T09:53:56;13.02;;;0.90;;
68229;SDS011;55048;52.220;5.160;2023-02-03T09:56:30;9.73;;;1.13;;
68229;SDS011;55048;52.220;5.160;2023-02-03T09:58:58;7.78;;;0.70;;
68229;SDS011;55048;52.220;5.160;2023-02-03T10:01:24;6.55;;;0.90;;
68229;SDS011;55048;52.220;5.160;2023-02-03T10:04:20;7.43;;;0.68;;
68229;SDS011;55048;52.220;5.160;2023-02-03T10:06:56;16.38;;;1.35;;
68229;SDS011;55048;52.220;5.160;2023-02-03T10:09:36;6.50;;;0.90;;
68229;SDS011;55048;52.220;5.160;2023-02-03T10:12:23;6.50;;;0.77;;
68229;SDS011;55048;52.220;5.160;2023-02-03T10:15:55;8.55;;;0.80;;
68229;SDS011;55048;52.220;5.160;2023-02-03T10:18:00;9.63;;;0.77;;
68229;SDS011;55048;52.220;5.160;2023-02-03T10:20:37;4.53;;;0.73;;
68229;SDS011;55048;52.220;5.160;2023-02-03T10:23:09;10.15;;;0.85;;
68229;SDS011;55048;52.220;5.160;2023-02-03T10:25:47;13.73;;;0.80;;
68229;SDS011;55048;52.220;5.160;2023-02-03T10:28:20;7.47;;;1.13;;
68229;SDS011;55048;52.220;5.160;2023-02-03T10:30:58;8.70;;;1.27;;
68229;SDS011;55048;52.220;5.160;2023-02-03T10:33:26;8.80;;;0.70;;
68229;SDS011;55048;52.220;5.160;2023-02-03T10:41:10;10.73;;;1.05;;
68229;SDS011;55048;52.220;5.160;2023-02-03T10:43:36;5.20;;;0.55;;
68229;SDS011;55048;52.220;5.160;2023-02-03T10:46:25;3.97;;;0.80;;
68229;SDS011;55048;52.220;5.160;2023-02-03T10:48:55;9.40;;;0.68;;
68229;SDS011;55048;52.220;5.160;2023-02-03T10:51:22;4.95;;;0.90;;
68229;SDS011;55048;52.220;5.160;2023-02-03T10:53:49;5.22;;;1.10;;
68229;SDS011;55048;52.220;5.160;2023-02-03T10:56:25;9.18;;;0.88;;
68229;SDS011;55048;52.220;5.160;2023-02-03T10:58:55;8.38;;;0.82;;
68229;SDS011;55048;52.220;5.160;2023-02-03T11:01:26;11.07;;;1.25;;
68229;SDS011;55048;52.220;5.160;2023-02-03T11:04:08;6.90;;;0.63;;
68229;SDS011;55048;52.220;5.160;2023-02-03T11:06:54;5.03;;;0.60;;
68229;SDS011;55048;52.220;5.160;2023-02-03T11:12:20;5.25;;;0.93;;
68229;SDS011;55048;52.220;5.160;2023-02-03T11:14:46;8.45;;;0.90;;
68229;SDS011;55048;52.220;5.160;2023-02-03T11:17:17;10.23;;;0.75;;
68229;SDS011;55048;52.220;5.160;2023-02-03T11:19:50;10.02;;;1.00;;
68229;SDS011;55048;52.220;5.160;2023-02-03T11:22:27;9.75;;;1.15;;
68229;SDS011;55048;52.220;5.160;2023-02-03T11:24:55;4.93;;;0.90;;
68229;SDS011;55048;52.220;5.160;2023-02-03T11:27:22;8.05;;;0.88;;
68229;SDS011;55048;52.220;5.160;2023-02-03T11:29:50;5.25;;;0.68;;
68229;SDS011;55048;52.220;5.160;2023-02-03T11:32:34;9.93;;;0.95;;
68229;SDS011;55048;52.220;5.160;2023-02-03T11:35:03;5.07;;;0.80;;
68229;SDS011;55048;52.220;5.160;2023-02-03T11:37:43;8.25;;;1.00;;
68229;SDS011;55048;52.220;5.160;2023-02-03T11:42:37;6.13;;;0.50;;
68229;SDS011;55048;52.220;5.160;2023-02-03T11:59:19;4.28;;;0.65;;
68229;SDS011;55048;52.220;5.160;2023-02-03T12:02:05;8.75;;;0.90;;
68229;SDS011;55048;52.220;5.160;2023-02-03T12:05:03;7.03;;;0.93;;
68229;SDS011;55048;52.220;5.160;2023-02-03T12:18:47;8.32;;;1.10;;
68229;SDS011;55048;52.220;5.160;2023-02-03T12:21:35;9.48;;;1.10;;
68229;SDS011;55048;52.220;5.160;2023-02-03T12:29:58;11.38;;;1.15;;
68229;SDS011;55048;52.220;5.160;2023-02-03T12:32:33;8.85;;;1.10;;
68229;SDS011;55048;52.220;5.160;2023-02-03T12:35:11;13.35;;;1.58;;
68229;SDS011;55048;52.220;5.160;2023-02-03T12:40:45;21.98;;;2.17;;
68229;SDS011;55048;52.220;5.160;2023-02-03T12:43:19;11.75;;;1.05;;
68229;SDS011;55048;52.220;5.160;2023-02-03T12:45:57;6.05;;;1.20;;
68229;SDS011;55048;52.220;5.160;2023-02-03T12:48:39;15.30;;;1.50;;
68229;SDS011;55048;52.220;5.160;2023-02-03T12:51:11;10.65;;;1.70;;
68229;SDS011;55048;52.220;5.160;2023-02-03T12:53:43;10.45;;;1.48;;
68229;SDS011;55048;52.220;5.160;2023-02-03T12:56:17;14.70;;;1.67;;
68229;SDS011;55048;52.220;5.160;2023-02-03T12:58:58;8.18;;;1.15;;
68229;SDS011;55048;52.220;5.160;2023-02-03T13:01:33;10.35;;;1.23;;
68229;SDS011;55048;52.220;5.160;2023-02-03T13:07:16;14.00;;;1.52;;
68229;SDS011;55048;52.220;5.160;2023-02-03T13:09:58;11.45;;;1.75;;
68229;SDS011;55048;52.220;5.160;2023-02-03T13:12:40;10.70;;;1.40;;
68229;SDS011;55048;52.220;5.160;2023-02-03T13:20:42;11.93;;;1.35;;
68229;SDS011;55048;52.220;5.160;2023-02-03T13:23:10;13.40;;;1.58;;
68229;SDS011;55048;52.220;5.160;2023-02-03T13:34:05;18.95;;;1.40;;
68229;SDS011;55048;52.220;5.160;2023-02-03T13:36:42;18.60;;;1.60;;
68229;SDS011;55048;52.220;5.160;2023-02-03T13:39:31;17.98;;;1.58;;
68229;SDS011;55048;52.220;5.160;2023-02-03T13:44:41;17.77;;;1.83;;
68229;SDS011;55048;52.220;5.160;2023-02-03T13:47:16;10.95;;;1.48;;
68229;SDS011;55048;52.220;5.160;2023-02-03T13:49:48;24.75;;;2.00;;
68229;SDS011;55048;52.220;5.160;2023-02-03T13:55:18;22.85;;;1.60;;
68229;SDS011;55048;52.220;5.160;2023-02-03T13:57:52;9.00;;;1.13;;
68229;SDS011;55048;52.220;5.160;2023-02-03T14:05:50;19.90;;;1.50;;
68229;SDS011;55048;52.220;5.160;2023-02-03T14:16:44;25.80;;;2.10;;
68229;SDS011;55048;52.220;5.160;2023-02-03T14:24:13;18.23;;;1.83;;
68229;SDS011;55048;52.220;5.160;2023-02-03T14:29:06;15.68;;;1.50;;
68229;SDS011;55048;52.220;5.160;2023-02-03T14:31:53;19.25;;;2.10;;
68229;SDS011;55048;52.220;5.160;2023-02-03T14:40:00;22.70;;;2.42;;
68229;SDS011;55048;52.220;5.160;2023-02-03T14:59:50;24.33;;;2.05;;
68229;SDS011;55048;52.220;5.160;2023-02-03T15:02:25;17.30;;;1.95;;
68229;SDS011;55048;52.220;5.160;2023-02-03T15:07:48;22.30;;;2.63;;
68229;SDS011;55048;52.220;5.160;2023-02-03T15:12:51;24.95;;;2.92;;
68229;SDS011;55048;52.220;5.160;2023-02-03T15:15:25;22.77;;;2.90;;
68229;SDS011;55048;52.220;5.160;2023-02-03T15:17:58;24.33;;;3.33;;
68229;SDS011;55048;52.220;5.160;2023-02-03T15:23:18;29.98;;;3.05;;
68229;SDS011;55048;52.220;5.160;2023-02-03T15:25:56;22.52;;;2.05;;
68229;SDS011;55048;52.220;5.160;2023-02-03T15:28:24;27.33;;;2.40;;
68229;SDS011;55048;52.220;5.160;2023-02-03T15:30:57;27.65;;;2.97;;
68229;SDS011;55048;52.220;5.160;2023-02-03T15:33:24;22.67;;;2.00;;
68229;SDS011;55048;52.220;5.160;2023-02-03T15:35:54;16.92;;;1.80;;
68229;SDS011;55048;52.220;5.160;2023-02-03T15:38:30;27.48;;;2.25;;
68229;SDS011;55048;52.220;5.160;2023-02-03T15:41:08;23.25;;;1.80;;
68229;SDS011;55048;52.220;5.160;2023-02-03T15:43:43;25.65;;;1.90;;
68229;SDS011;55048;52.220;5.160;2023-02-03T15:46:15;24.38;;;2.42;;
68229;SDS011;55048;52.220;5.160;2023-02-03T15:48:58;24.30;;;1.92;;
68229;SDS011;55048;52.220;5.160;2023-02-03T15:51:32;20.15;;;1.75;;
68229;SDS011;55048;52.220;5.160;2023-02-03T15:56:41;24.98;;;2.35;;
68229;SDS011;55048;52.220;5.160;2023-02-03T15:59:19;18.50;;;2.03;;
68229;SDS011;55048;52.220;5.160;2023-02-03T16:01:47;23.98;;;2.30;;
68229;SDS011;55048;52.220;5.160;2023-02-03T16:04:13;29.30;;;2.38;;
68229;SDS011;55048;52.220;5.160;2023-02-03T16:06:39;16.88;;;1.60;;
68229;SDS011;55048;52.220;5.160;2023-02-03T16:14:43;21.92;;;1.77;;
68229;SDS011;55048;52.220;5.160;2023-02-03T16:17:16;14.48;;;1.85;;
68229;SDS011;55048;52.220;5.160;2023-02-03T16:19:47;22.35;;;1.75;;
68229;SDS011;55048;52.220;5.160;2023-02-03T16:22:30;19.92;;;1.95;;
68229;SDS011;55048;52.220;5.160;2023-02-03T16:25:20;23.23;;;2.78;;
68229;SDS011;55048;52.220;5.160;2023-02-03T16:27:55;18.70;;;2.28;;
68229;SDS011;55048;52.220;5.160;2023-02-03T16:31:01;24.83;;;3.20;;
68229;SDS011;55048;52.220;5.160;2023-02-03T16:34:00;21.92;;;3.78;;
68229;SDS011;55048;52.220;5.160;2023-02-03T16:36:45;19.27;;;2.28;;
68229;SDS011;55048;52.220;5.160;2023-02-03T16:39:30;28.08;;;3.55;;
68229;SDS011;55048;52.220;5.160;2023-02-03T16:42:14;19.70;;;3.10;;
68229;SDS011;55048;52.220;5.160;2023-02-03T16:45:05;16.15;;;1.77;;
68229;SDS011;55048;52.220;5.160;2023-02-03T16:47:56;28.50;;;3.35;;
68229;SDS011;55048;52.220;5.160;2023-02-03T16:50:40;22.08;;;2.08;;
68229;SDS011;55048;52.220;5.160;2023-02-03T16:53:23;16.45;;;1.95;;
68229;SDS011;55048;52.220;5.160;2023-02-03T16:55:54;31.92;;;2.55;;
68229;SDS011;55048;52.220;5.160;2023-02-03T16:58:21;30.58;;;3.35;;
68229;SDS011;55048;52.220;5.160;2023-02-03T17:00:47;22.58;;;2.83;;
68229;SDS011;55048;52.220;5.160;2023-02-03T17:03:14;25.23;;;2.70;;
68229;SDS011;55048;52.220;5.160;2023-02-03T17:05:43;25.17;;;2.95;;
68229;SDS011;55048;52.220;5.160;2023-02-03T17:08:09;29.70;;;2.42;;
68229;SDS011;55048;52.220;5.160;2023-02-03T17:10:36;21.63;;;2.60;;
68229;SDS011;55048;52.220;5.160;2023-02-03T17:13:03;26.55;;;2.50;;
68229;SDS011;55048;52.220;5.160;2023-02-03T17:15:30;24.95;;;2.72;;
68229;SDS011;55048;52.220;5.160;2023-02-03T17:17:58;28.50;;;2.83;;
68229;SDS011;55048;52.220;5.160;2023-02-03T17:20:24;21.45;;;2.42;;
68229;SDS011;55048;52.220;5.160;2023-02-03T17:22:50;22.17;;;2.92;;
68229;SDS011;55048;52.220;5.160;2023-02-03T17:25:18;19.63;;;2.00;;
68229;SDS011;55048;52.220;5.160;2023-02-03T17:27:44;29.00;;;2.45;;
68229;SDS011;55048;52.220;5.160;2023-02-03T17:30:10;17.90;;;1.95;;
68229;SDS011;55048;52.220;5.160;2023-02-03T17:32:36;17.45;;;1.80;;
68229;SDS011;55048;52.220;5.160;2023-02-03T17:35:02;25.33;;;2.78;;